createdAt,value
2018-02-24T00:00:31.174Z,-0.65
2018-02-24T00:01:31.317Z,-0.76
2018-02-24T00:02:31.045Z,-0.74
2018-02-24T00:03:31.034Z,-0.67
2018-02-24T00:04:30.838Z,-0.70
2018-02-24T00:05:30.751Z,-0.71
2018-02-24T00:06:30.656Z,-0.74
2018-02-24T00:07:30.597Z,-0.67
2018-02-24T00:08:30.506Z,-0.74
2018-02-24T00:09:30.407Z,-0.73
2018-02-24T00:10:30.322Z,-0.90
2018-02-24T00:11:30.259Z,-0.73
2018-02-24T00:12:30.163Z,-0.85
2018-02-24T00:13:30.212Z,-0.86
2018-02-24T00:14:30.005Z,-0.90
2018-02-24T00:15:29.900Z,-0.83
2018-02-24T00:16:29.813Z,-0.83
2018-02-24T00:17:29.745Z,-0.86
2018-02-24T00:18:29.658Z,-0.85
2018-02-24T00:19:29.570Z,-0.92
2018-02-24T00:20:29.470Z,-0.92
2018-02-24T00:21:29.400Z,-0.83
2018-02-24T00:22:29.293Z,-0.83
2018-02-24T00:23:29.251Z,-0.93
2018-02-24T00:24:29.126Z,-1.00
2018-02-24T00:25:29.072Z,-0.95
2018-02-24T00:26:28.959Z,-0.93
2018-02-24T00:27:28.887Z,-1.07
2018-02-24T00:28:28.809Z,-0.99
2018-02-24T00:29:28.719Z,-1.00
2018-02-24T00:30:28.635Z,-0.96
2018-02-24T00:31:28.586Z,-0.92
2018-02-24T00:32:28.452Z,-0.85
2018-02-24T00:33:28.417Z,-0.89
2018-02-24T00:34:28.279Z,-0.83
2018-02-24T00:35:28.214Z,-0.95
2018-02-24T00:36:28.106Z,-0.96
2018-02-24T00:37:28.029Z,-0.95
2018-02-24T00:38:27.979Z,-0.92
2018-02-24T00:39:28.053Z,-0.95
2018-02-24T00:40:27.771Z,-0.97
2018-02-24T00:41:27.696Z,-0.97
2018-02-24T00:42:27.595Z,-0.97
2018-02-24T00:43:27.559Z,-1.07
2018-02-24T00:44:27.420Z,-1.03
2018-02-24T00:45:27.381Z,-1.13
2018-02-24T00:46:27.267Z,-1.21
2018-02-24T00:47:27.178Z,-1.25
2018-02-24T00:48:27.083Z,-1.14
2018-02-24T00:49:27.035Z,-1.17
2018-02-24T00:50:26.940Z,-1.17
2018-02-24T00:51:26.839Z,-1.08
2018-02-24T00:52:26.836Z,-0.96
2018-02-24T00:53:26.679Z,-0.99
2018-02-24T00:54:26.594Z,-0.92
2018-02-24T00:55:26.491Z,-1.07
2018-02-24T00:56:26.415Z,-1.14
2018-02-24T00:57:26.326Z,-1.13
2018-02-24T00:58:26.239Z,-1.31
2018-02-24T00:59:26.181Z,-1.29
2018-02-24T01:00:26.078Z,-1.32
2018-02-24T01:01:25.999Z,-1.36
2018-02-24T01:02:25.891Z,-1.36
2018-02-24T01:03:25.848Z,-1.43
2018-02-24T01:04:25.749Z,-1.26
2018-02-24T01:05:25.652Z,-1.31
2018-02-24T01:06:25.550Z,-1.21
2018-02-24T01:07:25.480Z,-1.23
2018-02-24T01:08:25.380Z,-1.20
2018-02-24T01:09:25.337Z,-1.26
2018-02-24T01:10:25.212Z,-1.14
2018-02-24T01:11:25.172Z,-1.11
2018-02-24T01:12:25.056Z,-1.26
2018-02-24T01:13:24.970Z,-1.26
2018-02-24T01:14:24.880Z,-1.33
2018-02-24T01:15:24.799Z,-1.25
2018-02-24T01:16:24.732Z,-1.35
2018-02-24T01:17:24.623Z,-1.35
2018-02-24T01:18:24.526Z,-1.26
2018-02-24T01:19:24.458Z,-1.33
2018-02-24T01:21:25.374Z,-1.35
2018-02-24T01:22:25.252Z,-1.35
2018-02-24T01:23:25.183Z,-1.38
2018-02-24T01:24:25.150Z,-1.56
2018-02-24T01:25:25.016Z,-1.46
2018-02-24T01:26:24.940Z,-1.50
2018-02-24T01:27:24.835Z,-1.54
2018-02-24T01:28:24.752Z,-1.49
2018-02-24T01:29:24.670Z,-1.41
2018-02-24T01:30:24.575Z,-1.56
2018-02-24T01:31:24.514Z,-1.53
2018-02-24T01:32:24.421Z,-1.50
2018-02-24T01:33:24.353Z,-1.39
2018-02-24T01:34:24.232Z,-1.47
2018-02-24T01:35:24.173Z,-1.53
2018-02-24T01:36:24.081Z,-1.53
2018-02-24T01:37:24.009Z,-1.51
2018-02-24T01:38:23.891Z,-1.36
2018-02-24T01:39:23.816Z,-1.46
2018-02-24T01:40:23.715Z,-1.39
2018-02-24T01:41:23.649Z,-1.33
2018-02-24T01:42:23.575Z,-1.43
2018-02-24T01:43:23.481Z,-1.39
2018-02-24T01:44:23.379Z,-1.51
2018-02-24T01:45:23.302Z,-1.50
2018-02-24T01:46:23.215Z,-1.53
2018-02-24T01:47:23.129Z,-1.65
2018-02-24T01:48:23.055Z,-1.71
2018-02-24T01:49:22.966Z,-1.68
2018-02-24T01:50:22.867Z,-1.74
2018-02-24T01:51:22.801Z,-1.68
2018-02-24T01:52:22.694Z,-1.62
2018-02-24T01:53:22.636Z,-1.57
2018-02-24T01:54:22.522Z,-1.57
2018-02-24T01:55:22.453Z,-1.57
2018-02-24T01:56:22.350Z,-1.61
2018-02-24T01:57:22.302Z,-1.64
2018-02-24T01:58:22.222Z,-1.59
2018-02-24T01:59:22.132Z,-1.64
2018-02-24T02:00:22.065Z,-1.65
2018-02-24T02:01:21.949Z,-1.62
2018-02-24T02:02:21.871Z,-1.71
2018-02-24T02:03:21.908Z,-1.72
2018-02-24T02:04:21.672Z,-1.56
2018-02-24T02:05:21.594Z,-1.67
2018-02-24T02:06:21.499Z,-1.64
2018-02-24T02:07:21.434Z,-1.65
2018-02-24T02:08:21.343Z,-1.74
2018-02-24T02:09:21.277Z,-1.72
2018-02-24T02:10:21.162Z,-1.72
2018-02-24T02:11:21.099Z,-1.72
2018-02-24T02:12:20.983Z,-1.75
2018-02-24T02:13:21.028Z,-1.54
2018-02-24T02:14:20.818Z,-1.64
2018-02-24T02:15:21.370Z,-1.65
2018-02-24T02:16:20.643Z,-1.71
2018-02-24T02:17:20.568Z,-1.74
2018-02-24T02:18:20.479Z,-1.64
2018-02-24T02:19:20.421Z,-1.67
2018-02-24T02:20:20.355Z,-1.67
2018-02-24T02:21:20.243Z,-1.71
2018-02-24T02:22:20.125Z,-1.62
2018-02-24T02:23:20.064Z,-1.67
2018-02-24T02:24:19.980Z,-1.64
2018-02-24T02:25:19.884Z,-1.72
2018-02-24T02:26:19.787Z,-1.62
2018-02-24T02:27:19.724Z,-1.56
2018-02-24T02:28:19.633Z,-1.57
2018-02-24T02:29:19.577Z,-1.61
2018-02-24T02:30:19.465Z,-1.68
2018-02-24T02:31:19.402Z,-1.65
2018-02-24T02:32:19.272Z,-1.70
2018-02-24T02:33:19.291Z,-1.72
2018-02-24T02:34:19.115Z,-1.68
2018-02-24T02:35:19.024Z,-1.72
2018-02-24T02:36:18.957Z,-1.72
2018-02-24T02:37:18.869Z,-1.75
2018-02-24T02:38:18.763Z,-1.67
2018-02-24T02:39:18.690Z,-1.71
2018-02-24T02:40:18.610Z,-1.74
2018-02-24T02:41:18.550Z,-1.70
2018-02-24T02:42:18.422Z,-1.68
2018-02-24T02:43:18.337Z,-1.64
2018-02-24T02:44:18.266Z,-1.61
2018-02-24T02:45:18.171Z,-1.53
2018-02-24T02:46:18.089Z,-1.56
2018-02-24T02:47:18.024Z,-1.74
2018-02-24T02:48:17.915Z,-1.68
2018-02-24T02:49:17.865Z,-1.70
2018-02-24T02:50:17.762Z,-1.74
2018-02-24T02:51:17.659Z,-1.71
2018-02-24T02:52:17.578Z,-1.70
2018-02-24T02:53:17.553Z,-1.77
2018-02-24T02:54:17.403Z,-1.72
2018-02-24T02:55:17.317Z,-1.83
2018-02-24T02:56:17.289Z,-1.88
2018-02-24T02:57:17.156Z,-1.86
2018-02-24T02:58:17.055Z,-1.82
2018-02-24T02:59:16.983Z,-1.77
2018-02-24T03:00:16.884Z,-1.75
2018-02-24T03:01:16.833Z,-1.72
2018-02-24T03:02:16.715Z,-1.89
2018-02-24T03:03:16.643Z,-1.86
2018-02-24T03:04:16.541Z,-1.83
2018-02-24T03:05:16.477Z,-1.80
2018-02-24T03:06:16.379Z,-1.93
2018-02-24T03:07:16.313Z,-1.93
2018-02-24T03:08:16.207Z,-1.89
2018-02-24T03:09:16.129Z,-2.01
2018-02-24T03:10:16.031Z,-1.96
2018-02-24T03:11:15.957Z,-1.88
2018-02-24T03:12:15.888Z,-1.90
2018-02-24T03:13:15.876Z,-1.83
2018-02-24T03:14:15.698Z,-1.86
2018-02-24T03:15:15.622Z,-1.75
2018-02-24T03:16:15.526Z,-1.82
2018-02-24T03:17:15.457Z,-1.85
2018-02-24T03:18:15.361Z,-1.88
2018-02-24T03:19:15.292Z,-1.80
2018-02-24T03:20:15.183Z,-1.93
2018-02-24T03:21:15.102Z,-1.95
2018-02-24T03:22:15.004Z,-1.89
2018-02-24T03:23:15.016Z,-1.86
2018-02-24T03:24:14.830Z,-1.75
2018-02-24T03:25:14.768Z,-1.86
2018-02-24T03:26:14.921Z,-1.95
2018-02-24T03:27:14.585Z,-1.82
2018-02-24T03:28:14.484Z,-1.95
2018-02-24T03:29:14.438Z,-1.85
2018-02-24T03:30:14.325Z,-1.93
2018-02-24T03:31:14.244Z,-1.93
2018-02-24T03:32:14.151Z,-1.75
2018-02-24T03:33:14.090Z,-1.85
2018-02-24T03:34:13.974Z,-1.82
2018-02-24T03:35:13.906Z,-1.80
2018-02-24T03:36:13.796Z,-1.78
2018-02-24T03:37:13.732Z,-1.80
2018-02-24T03:38:13.655Z,-1.72
2018-02-24T03:39:13.567Z,-1.82
2018-02-24T03:40:13.465Z,-1.78
2018-02-24T03:41:13.381Z,-1.85
2018-02-24T03:42:13.297Z,-1.93
2018-02-24T03:43:13.353Z,-1.90
2018-02-24T03:44:13.143Z,-1.89
2018-02-24T03:45:13.044Z,-1.92
2018-02-24T03:46:12.949Z,-1.82
2018-02-24T03:47:12.871Z,-1.88
2018-02-24T03:48:12.788Z,-1.93
2018-02-24T03:49:12.718Z,-1.89
2018-02-24T03:50:12.606Z,-1.93
2018-02-24T03:51:12.532Z,-1.89
2018-02-24T03:52:12.431Z,-1.95
2018-02-24T03:53:12.388Z,-2.01
2018-02-24T03:54:12.283Z,-2.06
2018-02-24T03:55:12.192Z,-2.14
2018-02-24T03:56:12.088Z,-2.28
2018-02-24T03:57:12.017Z,-2.22
2018-02-24T03:58:11.941Z,-2.29
2018-02-24T03:59:11.842Z,-2.28
2018-02-24T04:00:11.772Z,-2.21
2018-02-24T04:01:11.672Z,-2.25
2018-02-24T04:02:11.582Z,-2.19
2018-02-24T04:03:11.529Z,-2.19
2018-02-24T04:04:11.424Z,-2.21
2018-02-24T04:05:11.337Z,-2.18
2018-02-24T04:06:11.238Z,-2.32
2018-02-24T04:07:11.158Z,-2.35
2018-02-24T04:08:11.061Z,-2.29
2018-02-24T04:09:11.004Z,-2.24
2018-02-24T04:10:10.946Z,-2.28
2018-02-24T04:11:10.816Z,-2.24
2018-02-24T04:12:10.713Z,-2.24
2018-02-24T04:13:10.713Z,-2.22
2018-02-24T04:14:10.579Z,-2.29
2018-02-24T04:15:10.472Z,-2.33
2018-02-24T04:16:10.377Z,-2.13
2018-02-24T04:17:10.308Z,-2.18
2018-02-24T04:18:10.207Z,-2.21
2018-02-24T04:19:10.137Z,-2.18
2018-02-24T04:20:10.047Z,-2.29
2018-02-24T04:21:09.955Z,-2.26
2018-02-24T04:22:09.863Z,-2.22
2018-02-24T04:23:09.790Z,-2.25
2018-02-24T04:24:09.708Z,-2.29
2018-02-24T04:25:09.635Z,-2.29
2018-02-24T04:26:09.545Z,-2.37
2018-02-24T04:27:09.444Z,-2.33
2018-02-24T04:28:09.352Z,-2.38
2018-02-24T04:29:09.270Z,-2.33
2018-02-24T04:30:09.226Z,-2.25
2018-02-24T04:31:09.118Z,-2.25
2018-02-24T04:32:09.034Z,-2.25
2018-02-24T04:33:08.927Z,-2.14
2018-02-24T04:34:08.829Z,-2.16
2018-02-24T04:35:08.781Z,-2.18
2018-02-24T04:36:08.684Z,-2.14
2018-02-24T04:37:08.595Z,-2.21
2018-02-24T04:38:08.510Z,-2.24
2018-02-24T04:39:08.427Z,-2.28
2018-02-24T04:40:08.328Z,-2.19
2018-02-24T04:41:08.249Z,-2.14
2018-02-24T04:42:08.170Z,-2.18
2018-02-24T04:43:08.088Z,-2.32
2018-02-24T04:44:07.972Z,-2.29
2018-02-24T04:45:07.901Z,-2.37
2018-02-24T04:46:07.835Z,-2.35
2018-02-24T04:47:07.745Z,-2.28
2018-02-24T04:48:07.646Z,-2.32
2018-02-24T04:49:07.561Z,-2.29
2018-02-24T04:50:07.475Z,-2.43
2018-02-24T04:51:07.403Z,-2.28
2018-02-24T04:52:07.292Z,-2.22
2018-02-24T04:53:07.230Z,-2.16
2018-02-24T04:54:07.122Z,-2.22
2018-02-24T04:55:07.049Z,-2.37
2018-02-24T04:56:06.957Z,-2.37
2018-02-24T04:57:06.908Z,-2.29
2018-02-24T04:58:06.777Z,-2.29
2018-02-24T04:59:06.696Z,-2.29
2018-02-24T05:00:06.671Z,-2.29
2018-02-24T05:01:06.527Z,-2.35
2018-02-24T05:02:06.434Z,-2.35
2018-02-24T05:03:06.373Z,-2.33
2018-02-24T05:04:06.258Z,-2.35
2018-02-24T05:05:06.194Z,-2.35
2018-02-24T05:06:06.093Z,-2.29
2018-02-24T05:07:06.026Z,-2.32
2018-02-24T05:08:05.942Z,-2.26
2018-02-24T05:09:05.850Z,-2.08
2018-02-24T05:10:05.750Z,-2.04
2018-02-24T05:11:05.671Z,-2.18
2018-02-24T05:12:05.578Z,-2.14
2018-02-24T05:13:05.517Z,-2.22
2018-02-24T05:14:05.401Z,-2.26
2018-02-24T05:15:05.324Z,-2.24
2018-02-24T05:16:05.232Z,-2.22
2018-02-24T05:17:05.174Z,-2.10
2018-02-24T05:18:05.089Z,-2.07
2018-02-24T05:19:04.982Z,-2.07
2018-02-24T05:20:04.928Z,-2.11
2018-02-24T05:21:04.812Z,-2.10
2018-02-24T05:22:04.721Z,-2.13
2018-02-24T05:23:04.644Z,-2.08
2018-02-24T05:24:04.549Z,-2.14
2018-02-24T05:25:04.500Z,-2.13
2018-02-24T05:26:04.372Z,-2.11
2018-02-24T05:27:04.299Z,-2.18
2018-02-24T05:28:04.203Z,-2.13
2018-02-24T05:29:04.150Z,-1.93
2018-02-24T05:30:04.054Z,-2.08
2018-02-24T05:31:03.961Z,-2.07
2018-02-24T05:32:03.863Z,-2.08
2018-02-24T05:33:03.792Z,-2.14
2018-02-24T05:34:03.688Z,-2.01
2018-02-24T05:35:03.661Z,-1.92
2018-02-24T05:36:03.523Z,-2.03
2018-02-24T05:37:03.455Z,-1.82
2018-02-24T05:38:03.347Z,-2.01
2018-02-24T05:39:03.269Z,-1.92
2018-02-24T05:40:03.195Z,-2.03
2018-02-24T05:41:03.104Z,-2.01
2018-02-24T05:42:03.004Z,-2.03
2018-02-24T05:43:02.927Z,-1.93
2018-02-24T05:44:02.841Z,-1.88
2018-02-24T05:45:02.786Z,-1.92
2018-02-24T05:46:02.666Z,-1.89
2018-02-24T05:47:02.656Z,-1.93
2018-02-24T05:48:02.507Z,-1.86
2018-02-24T05:49:02.423Z,-1.96
2018-02-24T05:50:02.352Z,-1.89
2018-02-24T05:51:02.249Z,-1.86
2018-02-24T05:52:02.150Z,-1.78
2018-02-24T05:53:02.074Z,-1.83
2018-02-24T05:54:01.982Z,-1.78
2018-02-24T05:55:01.912Z,-1.68
2018-02-24T05:56:01.809Z,-1.70
2018-02-24T05:57:01.738Z,-1.77
2018-02-24T05:58:01.643Z,-1.72
2018-02-24T05:59:01.562Z,-1.65
2018-02-24T06:00:01.490Z,-1.72
2018-02-24T06:01:01.394Z,-1.70
2018-02-24T06:02:01.294Z,-1.65
2018-02-24T06:03:01.219Z,-1.71
2018-02-24T06:04:01.125Z,-1.67
2018-02-24T06:05:01.072Z,-1.75
2018-02-24T06:06:00.969Z,-1.67
2018-02-24T06:07:00.934Z,-1.74
2018-02-24T06:08:00.778Z,-1.74
2018-02-24T06:09:00.706Z,-1.59
2018-02-24T06:10:00.611Z,-1.64
2018-02-24T06:11:00.551Z,-1.59
2018-02-24T06:12:00.432Z,-1.57
2018-02-24T06:13:00.360Z,-1.50
2018-02-24T06:14:00.270Z,-1.56
2018-02-24T06:15:00.202Z,-1.57
2018-02-24T06:16:00.129Z,-1.50
2018-02-24T06:17:00.106Z,-1.51
2018-02-24T06:17:59.920Z,-1.56
2018-02-24T06:18:59.850Z,-1.50
2018-02-24T06:19:59.746Z,-1.56
2018-02-24T06:20:59.689Z,-1.57
2018-02-24T06:21:59.604Z,-1.57
2018-02-24T06:22:59.506Z,-1.59
2018-02-24T06:23:59.414Z,-1.50
2018-02-24T06:24:59.334Z,-1.15
2018-02-24T06:25:59.248Z,-1.10
2018-02-24T06:26:59.175Z,-1.29
2018-02-24T06:27:59.064Z,-1.25
2018-02-24T06:28:58.992Z,-1.35
2018-02-24T06:29:58.897Z,-1.26
2018-02-24T06:30:58.827Z,-1.18
2018-02-24T06:31:58.753Z,-1.21
2018-02-24T06:32:58.654Z,-0.97
2018-02-24T06:33:58.553Z,-0.90
2018-02-24T06:34:58.500Z,-0.96
2018-02-24T06:35:58.383Z,-0.96
2018-02-24T06:36:58.402Z,-1.00
2018-02-24T06:37:58.219Z,-1.07
2018-02-24T06:38:58.140Z,-0.93
2018-02-24T06:39:58.042Z,-0.97
2018-02-24T06:40:57.980Z,-1.20
2018-02-24T06:41:57.879Z,-1.29
2018-02-24T06:42:57.817Z,-1.32
2018-02-24T06:43:57.703Z,-1.23
2018-02-24T06:44:57.624Z,-1.13
2018-02-24T06:45:57.545Z,-0.95
2018-02-24T06:46:57.466Z,-0.90
2018-02-24T06:47:57.386Z,-0.74
2018-02-24T06:48:57.289Z,-0.83
2018-02-24T06:49:57.190Z,-0.89
2018-02-24T06:50:57.118Z,-0.93
2018-02-24T06:51:57.029Z,-0.97
2018-02-24T06:52:56.959Z,-0.92
2018-02-24T06:53:56.933Z,-0.62
2018-02-24T06:54:56.778Z,-0.62
2018-02-24T06:55:56.696Z,-0.78
2018-02-24T06:56:56.704Z,-0.67
2018-02-24T06:57:56.522Z,-0.81
2018-02-24T06:58:56.455Z,-0.63
2018-02-24T06:59:56.337Z,-0.49
2018-02-24T07:00:56.268Z,-0.59
2018-02-24T07:01:56.214Z,-0.27
2018-02-24T07:02:56.154Z,-0.56
2018-02-24T07:03:56.013Z,-0.73
2018-02-24T07:04:55.949Z,-0.65
2018-02-24T07:05:55.827Z,-0.52
2018-02-24T07:06:55.861Z,-0.23
2018-02-24T07:07:55.681Z,-0.30
2018-02-24T07:08:55.712Z,-0.31
2018-02-24T07:09:55.589Z,-0.34
2018-02-24T07:10:55.484Z,-0.14
2018-02-24T07:11:55.327Z,0.05
2018-02-24T07:12:55.394Z,-0.21
2018-02-24T07:13:55.167Z,-0.44
2018-02-24T07:14:55.093Z,-0.39
2018-02-24T07:15:54.968Z,-0.62
2018-02-24T07:17:54.808Z,-0.86
2018-02-24T07:18:54.857Z,-0.95
2018-02-24T07:19:54.664Z,-0.71
2018-02-24T07:20:54.626Z,-0.50
2018-02-24T07:21:54.462Z,-0.56
2018-02-24T07:22:54.428Z,-0.70
2018-02-24T07:23:54.317Z,-0.83
2018-02-24T07:24:54.263Z,-0.73
2018-02-24T07:25:54.137Z,-0.55
2018-02-24T07:26:54.561Z,-0.71
2018-02-24T07:27:53.971Z,-0.62
2018-02-24T07:28:54.703Z,-0.78
2018-02-24T07:29:53.781Z,-0.73
2018-02-24T07:30:53.756Z,-0.77
2018-02-24T07:31:53.624Z,-0.81
2018-02-24T07:32:53.586Z,-0.73
2018-02-24T07:33:53.445Z,-0.50
2018-02-24T07:34:53.416Z,-0.20
2018-02-24T07:35:53.270Z,-0.27
2018-02-24T07:36:53.308Z,-0.42
2018-02-24T07:37:53.102Z,-0.45
2018-02-24T07:38:53.104Z,-0.56
2018-02-24T07:39:52.953Z,-0.47
2018-02-24T07:40:52.939Z,-0.49
2018-02-24T07:41:52.771Z,-0.62
2018-02-24T07:42:52.733Z,-0.55
2018-02-24T07:45:34.951Z,-0.49
2018-02-24T07:46:34.771Z,-0.42
2018-02-24T07:47:34.768Z,-0.06
2018-02-24T07:48:34.601Z,-0.03
2018-02-24T07:49:34.641Z,0.01
2018-02-24T07:50:34.476Z,-0.19
2018-02-24T07:51:34.519Z,-0.17
2018-02-24T07:52:34.260Z,-0.23
2018-02-24T07:53:34.251Z,-0.03
2018-02-24T07:54:34.088Z,-0.06
2018-02-24T07:55:34.093Z,0.34
2018-02-24T07:56:33.926Z,0.88
2018-02-24T07:57:33.875Z,2.48
2018-02-24T07:58:33.771Z,3.93
2018-02-24T07:59:33.790Z,4.26
2018-02-24T08:00:33.658Z,4.94
2018-02-24T08:01:33.759Z,5.47
2018-02-24T08:02:33.407Z,5.59
2018-02-24T08:03:33.399Z,6.17
2018-02-24T08:04:33.249Z,5.99
2018-02-24T08:05:33.218Z,4.51
2018-02-24T08:06:33.110Z,4.97
2018-02-24T08:07:33.124Z,5.19
2018-02-24T08:08:32.913Z,4.93
2018-02-24T08:09:33.001Z,5.30
2018-02-24T08:10:33.467Z,5.99
2018-02-24T08:11:32.765Z,6.25
2018-02-24T08:12:32.580Z,6.69
2018-02-24T08:13:32.571Z,6.69
2018-02-24T08:14:32.423Z,6.11
2018-02-24T08:15:32.477Z,5.80
2018-02-24T08:16:32.275Z,6.16
2018-02-24T08:17:32.299Z,6.99
2018-02-24T08:18:32.089Z,6.90
2018-02-24T08:19:32.125Z,7.63
2018-02-24T08:20:31.927Z,8.32
2018-02-24T08:21:31.908Z,8.46
2018-02-24T08:22:31.777Z,5.77
2018-02-24T08:23:31.705Z,6.51
2018-02-24T08:24:31.611Z,6.50
2018-02-24T08:25:31.597Z,6.93
2018-02-24T08:26:31.482Z,6.89
2018-02-24T08:28:31.278Z,7.15
2018-02-24T08:29:31.313Z,6.28
2018-02-24T08:30:31.132Z,6.39
2018-02-24T08:31:31.134Z,7.08
2018-02-24T08:32:30.982Z,7.85
2018-02-24T08:33:30.936Z,7.62
2018-02-24T08:34:30.799Z,7.32
2018-02-24T08:35:30.881Z,7.12
2018-02-24T08:36:30.633Z,7.94
2018-02-24T08:37:30.680Z,6.90
2018-02-24T08:38:30.484Z,7.74
2018-02-24T08:39:30.457Z,8.00
2018-02-24T08:40:30.309Z,8.39
2018-02-24T08:41:30.271Z,8.60
2018-02-24T08:42:30.154Z,8.14
2018-02-24T08:43:30.541Z,8.54
2018-02-24T08:44:29.994Z,8.64
2018-02-24T08:45:29.988Z,9.62
2018-02-24T08:46:29.846Z,10.01
2018-02-24T08:47:29.798Z,10.43
2018-02-24T08:48:30.083Z,10.78
2018-02-24T08:49:29.705Z,10.94
2018-02-24T08:50:29.511Z,9.53
2018-02-24T08:51:29.513Z,9.73
2018-02-24T08:52:29.358Z,9.68
2018-02-24T08:53:29.359Z,9.77
2018-02-24T08:54:29.207Z,9.42
2018-02-24T08:55:29.235Z,8.28
2018-02-24T08:56:29.049Z,7.73
2018-02-24T08:57:29.061Z,8.21
2018-02-24T08:58:28.886Z,8.06
2018-02-24T08:59:28.884Z,7.23
2018-02-24T09:00:28.737Z,7.47
2018-02-24T09:01:28.762Z,7.55
2018-02-24T09:02:28.608Z,7.36
2018-02-24T09:03:28.507Z,7.48
2018-02-24T09:04:28.426Z,6.68
2018-02-24T09:05:28.431Z,6.69
2018-02-24T09:06:28.250Z,7.89
2018-02-24T09:07:28.300Z,7.91
2018-02-24T09:08:28.099Z,8.02
2018-02-24T09:09:28.684Z,9.17
2018-02-24T09:10:27.944Z,9.58
2018-02-24T09:11:27.904Z,8.97
2018-02-24T09:12:27.769Z,8.67
2018-02-24T09:13:27.865Z,8.25
2018-02-24T09:14:28.481Z,8.54
2018-02-24T09:15:27.653Z,9.52
2018-02-24T09:16:27.454Z,9.13
2018-02-24T09:17:27.435Z,8.54
2018-02-24T09:18:27.292Z,9.88
2018-02-24T09:19:27.281Z,9.27
2018-02-24T09:20:27.137Z,8.36
2018-02-24T09:21:27.187Z,7.50
2018-02-24T09:22:26.982Z,7.94
2018-02-24T09:24:27.065Z,9.13
2018-02-24T09:25:26.797Z,7.91
2018-02-24T09:26:26.663Z,8.83
2018-02-24T09:27:27.457Z,8.64
2018-02-24T09:28:26.559Z,8.65
2018-02-24T09:31:08.400Z,8.55
2018-02-24T09:32:08.422Z,9.88
2018-02-24T09:33:08.244Z,10.31
2018-02-24T09:34:09.128Z,10.63
2018-02-24T09:35:08.083Z,11.23
2018-02-24T09:36:08.110Z,10.22
2018-02-24T09:37:07.904Z,10.54
2018-02-24T09:38:07.918Z,10.86
2018-02-24T09:39:07.742Z,10.39
2018-02-24T09:40:07.724Z,11.20
2018-02-24T09:41:07.612Z,10.90
2018-02-24T09:42:07.637Z,10.47
2018-02-24T09:43:07.436Z,9.85
2018-02-24T09:44:07.438Z,10.52
2018-02-24T09:45:07.272Z,10.90
2018-02-24T09:46:07.316Z,11.26
2018-02-24T09:47:07.135Z,11.62
2018-02-24T09:48:07.166Z,10.93
2018-02-24T09:49:06.983Z,10.32
2018-02-24T09:50:07.005Z,9.80
2018-02-24T09:51:06.844Z,9.86
2018-02-24T09:52:06.883Z,10.35
2018-02-24T09:53:06.656Z,10.87
2018-02-24T09:54:07.063Z,10.22
2018-02-24T09:55:06.500Z,10.94
2018-02-24T09:56:07.248Z,10.54
2018-02-24T09:59:30.595Z,10.88
2018-02-24T10:00:30.365Z,10.63
2018-02-24T10:01:31.188Z,10.24
2018-02-24T10:02:30.216Z,10.39
2018-02-24T10:03:30.196Z,9.81
2018-02-24T10:04:30.063Z,10.31
2018-02-24T10:05:30.186Z,9.68
2018-02-24T10:06:29.924Z,9.70
2018-02-24T10:07:29.950Z,9.74
2018-02-24T10:08:29.752Z,9.16
2018-02-24T10:09:29.725Z,9.16
2018-02-24T10:10:29.619Z,8.93
2018-02-24T10:11:29.632Z,9.65
2018-02-24T10:12:29.445Z,10.76
2018-02-24T10:13:29.451Z,11.17
2018-02-24T10:14:29.321Z,10.63
2018-02-24T10:15:29.264Z,10.43
2018-02-24T10:16:29.122Z,10.93
2018-02-24T10:17:29.194Z,10.90
2018-02-24T10:18:28.999Z,10.28
2018-02-24T10:21:10.889Z,10.55
2018-02-24T10:22:10.858Z,9.91
2018-02-24T10:23:10.768Z,10.20
2018-02-24T10:24:10.666Z,10.28
2018-02-24T10:25:10.587Z,11.27
2018-02-24T10:26:10.679Z,10.51
2018-02-24T10:27:10.442Z,10.10
2018-02-24T10:28:10.476Z,11.31
2018-02-24T10:29:10.344Z,11.09
2018-02-24T10:30:10.308Z,10.95
2018-02-24T10:31:10.109Z,11.93
2018-02-24T10:32:10.114Z,10.94
2018-02-24T10:33:09.986Z,10.73
2018-02-24T10:34:09.966Z,10.43
2018-02-24T10:35:09.803Z,10.01
2018-02-24T10:36:09.847Z,9.85
2018-02-24T10:37:09.676Z,9.78
2018-02-24T10:38:09.670Z,10.54
2018-02-24T10:39:09.490Z,10.09
2018-02-24T10:40:09.617Z,10.66
2018-02-24T10:41:09.340Z,11.23
2018-02-24T10:42:09.451Z,10.93
2018-02-24T10:43:09.213Z,9.86
2018-02-24T10:44:09.710Z,9.59
2018-02-24T10:45:09.040Z,9.75
2018-02-24T10:47:51.515Z,10.06
2018-02-24T10:48:50.917Z,10.90
2018-02-24T10:49:50.781Z,11.33
2018-02-24T10:50:50.781Z,11.56
2018-02-24T10:51:50.592Z,11.49
2018-02-24T10:52:50.604Z,10.26
2018-02-24T10:53:50.457Z,11.17
2018-02-24T10:54:50.414Z,10.75
2018-02-24T10:55:50.312Z,10.47
2018-02-24T10:56:50.313Z,11.01
2018-02-24T10:57:50.127Z,11.12
2018-02-24T10:58:50.141Z,11.75
2018-02-24T10:59:49.990Z,11.63
2018-02-24T11:00:50.035Z,11.17
2018-02-24T11:01:49.856Z,10.55
2018-02-24T11:02:49.843Z,10.17
2018-02-24T11:03:49.657Z,10.46
2018-02-24T11:04:49.717Z,9.89
2018-02-24T11:16:12.849Z,9.08
2018-02-24T11:17:12.860Z,9.67
2018-02-24T11:18:12.678Z,10.34
2018-02-24T11:19:13.089Z,11.20
2018-02-24T11:20:12.506Z,11.08
2018-02-24T11:22:12.384Z,9.58
2018-02-24T11:23:12.392Z,9.89
2018-02-24T11:24:12.211Z,10.39
2018-02-24T11:25:12.207Z,10.02
2018-02-24T11:26:12.053Z,9.81
2018-02-24T11:27:12.089Z,10.28
2018-02-24T11:28:11.872Z,10.42
2018-02-24T11:29:11.972Z,10.62
2018-02-24T11:30:11.724Z,11.38
2018-02-24T11:31:11.723Z,10.90
2018-02-24T11:32:11.592Z,10.36
2018-02-24T11:33:11.527Z,10.31
2018-02-24T11:34:11.450Z,10.31
2018-02-24T11:35:11.503Z,9.80
2018-02-24T11:36:11.292Z,9.78
2018-02-24T11:38:53.413Z,9.56
2018-02-24T11:39:53.457Z,9.56
2018-02-24T11:40:53.300Z,9.77
2018-02-24T11:41:53.261Z,9.67
2018-02-24T11:42:53.109Z,9.56
2018-02-24T11:43:53.104Z,9.38
2018-02-24T11:44:52.946Z,9.86
2018-02-24T11:45:52.989Z,10.49
2018-02-24T11:46:52.881Z,10.42
2018-02-24T11:47:52.792Z,10.86
2018-02-24T11:48:52.636Z,10.09
2018-02-24T11:49:52.717Z,9.71
2018-02-24T11:50:52.477Z,10.26
2018-02-24T11:51:52.560Z,11.26
2018-02-24T11:52:52.326Z,11.24
2018-02-24T11:53:52.318Z,11.64
2018-02-24T11:54:52.191Z,11.33
2018-02-24T11:55:52.996Z,10.94
2018-02-24T11:56:52.034Z,10.90
2018-02-24T11:57:52.035Z,10.57
2018-02-24T11:58:51.910Z,9.70
2018-02-24T11:59:51.855Z,10.36
2018-02-24T12:00:51.693Z,10.43
2018-02-24T12:01:51.754Z,9.75
2018-02-24T12:02:51.679Z,9.93
2018-02-24T12:04:51.388Z,10.29
2018-02-24T12:05:51.383Z,10.17
2018-02-24T12:06:51.238Z,10.51
2018-02-24T12:07:51.218Z,9.77
2018-02-24T12:08:51.239Z,9.60
2018-02-24T12:09:51.093Z,9.63
2018-02-24T12:10:50.940Z,10.44
2018-02-24T12:11:50.900Z,10.44
2018-02-24T12:12:50.773Z,11.12
2018-02-24T12:13:50.732Z,11.11
2018-02-24T12:14:50.615Z,10.72
2018-02-24T12:15:50.628Z,11.31
2018-02-24T12:16:50.475Z,10.98
2018-02-24T12:17:50.495Z,10.75
2018-02-24T12:18:50.299Z,10.55
2018-02-24T12:19:50.389Z,10.88
2018-02-24T12:20:50.149Z,9.98
2018-02-24T12:21:50.075Z,10.28
2018-02-24T12:22:50.016Z,9.50
2018-02-24T12:23:49.930Z,9.48
2018-02-24T12:24:49.847Z,9.75
2018-02-24T12:25:49.759Z,9.35
2018-02-24T12:26:49.680Z,9.41
2018-02-24T12:27:49.609Z,8.70
2018-02-24T12:30:14.471Z,8.20
2018-02-24T12:31:14.364Z,7.79
2018-02-24T12:32:14.270Z,7.32
2018-02-24T12:33:14.283Z,6.83
2018-02-24T12:34:14.125Z,6.81
2018-02-24T12:35:14.051Z,6.58
2018-02-24T12:36:13.979Z,6.65
2018-02-24T12:37:13.885Z,6.65
2018-02-24T12:38:13.847Z,6.32
2018-02-24T12:39:13.848Z,6.35
2018-02-24T12:40:13.655Z,6.36
2018-02-24T12:41:13.621Z,6.40
2018-02-24T12:42:13.482Z,6.63
2018-02-24T12:43:13.431Z,6.53
2018-02-24T12:44:13.349Z,6.58
2018-02-24T12:45:13.282Z,6.42
2018-02-24T12:46:13.163Z,6.53
2018-02-24T12:47:13.115Z,6.30
2018-02-24T12:48:12.991Z,6.21
2018-02-24T12:49:12.952Z,6.17
2018-02-24T12:50:12.862Z,6.25
2018-02-24T12:51:12.878Z,6.25
2018-02-24T12:52:12.667Z,5.87
2018-02-24T12:53:12.676Z,5.74
2018-02-24T12:54:12.505Z,5.88
2018-02-24T12:55:12.522Z,6.01
2018-02-24T12:56:12.355Z,6.05
2018-02-24T12:57:12.303Z,6.03
2018-02-24T12:58:12.185Z,6.01
2018-02-24T12:59:12.199Z,6.05
2018-02-24T13:00:12.050Z,6.21
2018-02-24T13:01:12.049Z,6.05
2018-02-24T13:02:11.855Z,5.85
2018-02-24T13:03:11.857Z,5.80
2018-02-24T13:04:11.720Z,5.87
2018-02-24T13:05:11.742Z,5.75
2018-02-24T13:06:11.543Z,5.69
2018-02-24T13:08:11.408Z,5.90
2018-02-24T13:09:11.309Z,5.84
2018-02-24T13:10:11.220Z,5.85
2018-02-24T13:11:11.206Z,5.95
2018-02-24T13:12:11.068Z,5.99
2018-02-24T13:13:11.089Z,5.84
2018-02-24T13:14:10.881Z,5.85
2018-02-24T13:15:10.903Z,5.83
2018-02-24T13:16:10.737Z,5.85
2018-02-24T13:17:10.704Z,5.81
2018-02-24T13:18:10.553Z,5.69
2018-02-24T13:19:10.608Z,5.81
2018-02-24T13:20:10.403Z,5.67
2018-02-24T13:21:10.440Z,5.67
2018-02-24T13:22:10.218Z,5.65
2018-02-24T13:23:10.207Z,5.67
2018-02-24T13:24:10.067Z,5.44
2018-02-24T13:25:10.020Z,5.52
2018-02-24T13:26:09.927Z,5.70
2018-02-24T13:27:09.937Z,5.84
2018-02-24T13:28:09.728Z,5.83